sensor_id;sensor_type;location;lat;lon;timestamp;pressure;altitude;pressure_sealevel;temperature;humidity
56456;BME280;42354;53.218;6.564;2022-07-11T00:02:21;102075.25;;;14.63;100.00
56456;BME280;42354;53.218;6.564;2022-07-11T00:04:47;102075.09;;;14.66;100.00
56456;BME280;42354;53.218;6.564;2022-07-11T00:07:12;102066.00;;;14.67;100.00
56456;BME280;42354;53.218;6.564;2022-07-11T00:09:38;102066.16;;;14.64;100.00
56456;BME280;42354;53.218;6.564;2022-07-11T00:12:03;102058.97;;;14.63;100.00
56456;BME280;42354;53.218;6.564;2022-07-11T00:14:29;102071.59;;;14.64;100.00
56456;BME280;42354;53.218;6.564;2022-07-11T00:16:54;102066.16;;;14.64;100.00
56456;BME280;42354;53.218;6.564;2022-07-11T00:19:20;102066.16;;;14.64;100.00
56456;BME280;42354;53.218;6.564;2022-07-11T00:21:46;102061.53;;;14.66;100.00
56456;BME280;42354;53.218;6.564;2022-07-11T00:24:11;102060.66;;;14.65;100.00
56456;BME280;42354;53.218;6.564;2022-07-11T00:26:37;102060.16;;;14.57;100.00
56456;BME280;42354;53.218;6.564;2022-07-11T00:29:02;102055.53;;;14.59;100.00
56456;BME280;42354;53.218;6.564;2022-07-11T00:31:27;102062.00;;;14.57;100.00
56456;BME280;42354;53.218;6.564;2022-07-11T00:33:53;102057.53;;;14.56;100.00
56456;BME280;42354;53.218;6.564;2022-07-11T00:36:18;102045.78;;;14.55;100.00
56456;BME280;42354;53.218;6.564;2022-07-11T00:38:44;102055.78;;;14.55;100.00
56456;BME280;42354;53.218;6.564;2022-07-11T00:41:09;102052.09;;;14.56;100.00
56456;BME280;42354;53.218;6.564;2022-07-11T00:43:37;102052.19;;;14.54;100.00
56456;BME280;42354;53.218;6.564;2022-07-11T00:46:03;102042.28;;;14.53;100.00
56456;BME280;42354;53.218;6.564;2022-07-11T00:48:29;102045.78;;;14.55;100.00
56456;BME280;42354;53.218;6.564;2022-07-11T00:50:54;102042.13;;;14.56;100.00
56456;BME280;42354;53.218;6.564;2022-07-11T00:53:20;102042.84;;;14.60;100.00
56456;BME280;42354;53.218;6.564;2022-07-11T00:55:46;102036.44;;;14.61;100.00
56456;BME280;42354;53.218;6.564;2022-07-11T00:58:12;102040.91;;;14.62;100.00
56456;BME280;42354;53.218;6.564;2022-07-11T01:00:38;102046.34;;;14.62;100.00
56456;BME280;42354;53.218;6.564;2022-07-11T01:03:03;102036.28;;;14.64;100.00
56456;BME280;42354;53.218;6.564;2022-07-11T01:05:31;102027.34;;;14.62;100.00
56456;BME280;42354;53.218;6.564;2022-07-11T01:07:56;102033.72;;;14.61;100.00
56456;BME280;42354;53.218;6.564;2022-07-11T01:10:22;102034.59;;;14.61;100.00
56456;BME280;42354;53.218;6.564;2022-07-11T01:12:48;102037.25;;;14.63;100.00
56456;BME280;42354;53.218;6.564;2022-07-11T01:15:13;102021.75;;;14.65;100.00
56456;BME280;42354;53.218;6.564;2022-07-11T01:17:39;102025.25;;;14.67;100.00
56456;BME280;42354;53.218;6.564;2022-07-11T01:20:04;102032.34;;;14.69;100.00
56456;BME280;42354;53.218;6.564;2022-07-11T01:22:29;102026.94;;;14.69;100.00
56456;BME280;42354;53.218;6.564;2022-07-11T01:24:59;102022.47;;;14.68;100.00
56456;BME280;42354;53.218;6.564;2022-07-11T01:27:24;102017.97;;;14.67;100.00
56456;BME280;42354;53.218;6.564;2022-07-11T01:29:49;102021.41;;;14.71;100.00
56456;BME280;42354;53.218;6.564;2022-07-11T01:32:17;102014.22;;;14.70;100.00
56456;BME280;42354;53.218;6.564;2022-07-11T01:34:42;102012.22;;;14.73;100.00
56456;BME280;42354;53.218;6.564;2022-07-11T01:37:07;102013.25;;;14.71;100.00
56456;BME280;42354;53.218;6.564;2022-07-11T01:39:32;102011.34;;;14.73;100.00
56456;BME280;42354;53.218;6.564;2022-07-11T01:41:57;102009.59;;;14.72;100.00
56456;BME280;42354;53.218;6.564;2022-07-11T01:44:23;102016.78;;;14.73;100.00
56456;BME280;42354;53.218;6.564;2022-07-11T01:46:48;102021.09;;;14.77;100.00
56456;BME280;42354;53.218;6.564;2022-07-11T01:49:13;102007.75;;;14.72;100.00
56456;BME280;42354;53.218;6.564;2022-07-11T01:51:40;102024.13;;;14.71;100.00
56456;BME280;42354;53.218;6.564;2022-07-11T01:54:06;102007.84;;;14.71;100.00
56456;BME280;42354;53.218;6.564;2022-07-11T01:56:31;102014.22;;;14.70;100.00
56456;BME280;42354;53.218;6.564;2022-07-11T01:58:58;102014.22;;;14.70;100.00
56456;BME280;42354;53.218;6.564;2022-07-11T02:01:23;102025.09;;;14.70;100.00
56456;BME280;42354;53.218;6.564;2022-07-11T02:03:48;102019.66;;;14.70;100.00
56456;BME280;42354;53.218;6.564;2022-07-11T02:06:13;102026.75;;;14.72;100.00
56456;BME280;42354;53.218;6.564;2022-07-11T02:08:38;102020.13;;;14.78;100.00
56456;BME280;42354;53.218;6.564;2022-07-11T02:11:04;102027.47;;;14.76;100.00
56456;BME280;42354;53.218;6.564;2022-07-11T02:13:29;102019.25;;;14.77;100.00
56456;BME280;42354;53.218;6.564;2022-07-11T02:15:54;102017.50;;;14.76;100.00
56456;BME280;42354;53.218;6.564;2022-07-11T02:18:20;102025.56;;;14.78;100.00
56456;BME280;42354;53.218;6.564;2022-07-11T02:20:45;102025.72;;;14.75;100.00
56456;BME280;42354;53.218;6.564;2022-07-11T02:23:11;102019.31;;;14.76;100.00
56456;BME280;42354;53.218;6.564;2022-07-11T02:25:37;102017.81;;;14.70;100.00
56456;BME280;42354;53.218;6.564;2022-07-11T02:28:04;102016.94;;;14.70;100.00
56456;BME280;42354;53.218;6.564;2022-07-11T02:30:30;102010.72;;;14.68;100.00
56456;BME280;42354;53.218;6.564;2022-07-11T02:32:55;102006.06;;;14.70;100.00
56456;BME280;42354;53.218;6.564;2022-07-11T02:35:20;102014.22;;;14.70;100.00
56456;BME280;42354;53.218;6.564;2022-07-11T02:37:46;102009.75;;;14.69;100.00
56456;BME280;42354;53.218;6.564;2022-07-11T02:40:11;102008.97;;;14.67;100.00
56456;BME280;42354;53.218;6.564;2022-07-11T02:42:36;102009.03;;;14.65;100.00
56456;BME280;42354;53.218;6.564;2022-07-11T02:45:02;102004.47;;;14.66;100.00
56456;BME280;42354;53.218;6.564;2022-07-11T02:47:28;102015.28;;;14.67;100.00
56456;BME280;42354;53.218;6.564;2022-07-11T02:49:53;102003.34;;;14.70;100.00
56456;BME280;42354;53.218;6.564;2022-07-11T02:52:18;102005.03;;;14.72;100.00
56456;BME280;42354;53.218;6.564;2022-07-11T02:54:43;102010.31;;;14.75;100.00
56456;BME280;42354;53.218;6.564;2022-07-11T02:57:09;102013.25;;;14.71;100.00
56456;BME280;42354;53.218;6.564;2022-07-11T02:59:34;102007.84;;;14.71;100.00
56456;BME280;42354;53.218;6.564;2022-07-11T03:01:59;102014.94;;;14.73;100.00
56456;BME280;42354;53.218;6.564;2022-07-11T03:04:24;101999.84;;;14.68;100.00
56456;BME280;42354;53.218;6.564;2022-07-11T03:06:50;102015.91;;;14.72;100.00
56456;BME280;42354;53.218;6.564;2022-07-11T03:09:16;102007.66;;;14.74;100.00
56456;BME280;42354;53.218;6.564;2022-07-11T03:11:41;102013.97;;;14.74;100.00
56456;BME280;42354;53.218;6.564;2022-07-11T03:14:07;102012.22;;;14.73;100.00
56456;BME280;42354;53.218;6.564;2022-07-11T03:16:32;102011.34;;;14.73;100.00
56456;BME280;42354;53.218;6.564;2022-07-11T03:18:57;102014.84;;;14.75;100.00
56456;BME280;42354;53.218;6.564;2022-07-11T03:21:23;102013.09;;;14.74;100.00
56456;BME280;42354;53.218;6.564;2022-07-11T03:23:49;102019.56;;;14.71;100.00
56456;BME280;42354;53.218;6.564;2022-07-11T03:26:15;102013.25;;;14.71;100.00
56456;BME280;42354;53.218;6.564;2022-07-11T03:28:40;102013.25;;;14.71;100.00
56456;BME280;42354;53.218;6.564;2022-07-11T03:31:05;102021.41;;;14.71;100.00
56456;BME280;42354;53.218;6.564;2022-07-11T03:33:31;102011.34;;;14.73;100.00
56456;BME280;42354;53.218;6.564;2022-07-11T03:35:56;102015.72;;;14.75;100.00
56456;BME280;42354;53.218;6.564;2022-07-11T03:38:21;102012.94;;;14.77;100.00
56456;BME280;42354;53.218;6.564;2022-07-11T03:40:47;102017.50;;;14.76;100.00
56456;BME280;42354;53.218;6.564;2022-07-11T03:43:13;102020.13;;;14.78;100.00
56456;BME280;42354;53.218;6.564;2022-07-11T03:45:38;102011.19;;;14.76;100.00
56456;BME280;42354;53.218;6.564;2022-07-11T03:48:04;102020.13;;;14.78;100.00
56456;BME280;42354;53.218;6.564;2022-07-11T03:50:29;102020.03;;;14.79;100.00
56456;BME280;42354;53.218;6.564;2022-07-11T03:52:54;102022.50;;;14.84;100.00
56456;BME280;42354;53.218;6.564;2022-07-11T03:55:20;102026.25;;;14.81;100.00
56456;BME280;42354;53.218;6.564;2022-07-11T03:57:46;102024.44;;;14.82;100.00
56456;BME280;42354;53.218;6.564;2022-07-11T04:00:11;102027.94;;;14.84;100.00
56456;BME280;42354;53.218;6.564;2022-07-11T04:02:37;102025.38;;;14.81;100.00
56456;BME280;42354;53.218;6.564;2022-07-11T04:05:02;102021.63;;;14.83;100.00
56456;BME280;42354;53.218;6.564;2022-07-11T04:07:28;102030.56;;;14.86;100.00
56456;BME280;42354;53.218;6.564;2022-07-11T04:09:53;102031.53;;;14.84;100.00
56456;BME280;42354;53.218;6.564;2022-07-11T04:12:18;102027.94;;;14.84;100.00
56456;BME280;42354;53.218;6.564;2022-07-11T04:14:45;102022.41;;;14.86;100.00
56456;BME280;42354;53.218;6.564;2022-07-11T04:17:11;102027.78;;;14.87;100.00
56456;BME280;42354;53.218;6.564;2022-07-11T04:19:36;102031.28;;;14.89;100.00
56456;BME280;42354;53.218;6.564;2022-07-11T04:22:01;102025.75;;;14.91;100.00
56456;BME280;42354;53.218;6.564;2022-07-11T04:24:26;102038.56;;;14.89;100.00
56456;BME280;42354;53.218;6.564;2022-07-11T04:26:52;102034.97;;;14.88;100.00
56456;BME280;42354;53.218;6.564;2022-07-11T04:29:17;102027.53;;;14.92;100.00
56456;BME280;42354;53.218;6.564;2022-07-11T04:31:42;102026.56;;;14.93;100.00
56456;BME280;42354;53.218;6.564;2022-07-11T04:34:07;102030.31;;;14.90;100.00
56456;BME280;42354;53.218;6.564;2022-07-11T04:36:33;102028.72;;;14.86;100.00
56456;BME280;42354;53.218;6.564;2022-07-11T04:38:58;102030.50;;;14.87;100.00
56456;BME280;42354;53.218;6.564;2022-07-11T04:41:23;102030.66;;;14.84;100.00
56456;BME280;42354;53.218;6.564;2022-07-11T04:43:48;102025.47;;;14.79;100.00
56456;BME280;42354;53.218;6.564;2022-07-11T04:46:13;102031.53;;;14.84;100.00
56456;BME280;42354;53.218;6.564;2022-07-11T04:48:39;102026.25;;;14.81;100.00
56456;BME280;42354;53.218;6.564;2022-07-11T04:51:05;102032.75;;;14.79;100.00
56456;BME280;42354;53.218;6.564;2022-07-11T04:53:30;102035.53;;;14.77;100.00
56456;BME280;42354;53.218;6.564;2022-07-11T04:55:55;102043.69;;;14.77;100.00
56456;BME280;42354;53.218;6.564;2022-07-11T04:58:20;102045.69;;;14.74;100.00
56456;BME280;42354;53.218;6.564;2022-07-11T05:00:46;102043.16;;;14.71;100.00
56456;BME280;42354;53.218;6.564;2022-07-11T05:03:11;102032.13;;;14.74;100.00
56456;BME280;42354;53.218;6.564;2022-07-11T05:05:37;102041.06;;;14.76;100.00
56456;BME280;42354;53.218;6.564;2022-07-11T05:08:02;102053.59;;;14.78;100.00
56456;BME280;42354;53.218;6.564;2022-07-11T05:10:28;102050.72;;;14.81;100.00
56456;BME280;42354;53.218;6.564;2022-07-11T05:12:56;102047.84;;;14.84;100.00
56456;BME280;42354;53.218;6.564;2022-07-11T05:15:21;102052.38;;;14.84;100.00
56456;BME280;42354;53.218;6.564;2022-07-11T05:17:46;102054.78;;;14.90;100.00
56456;BME280;42354;53.218;6.564;2022-07-11T05:20:11;102057.00;;;14.99;100.00
56456;BME280;42354;53.218;6.564;2022-07-11T05:22:36;102045.78;;;15.05;100.00
56456;BME280;42354;53.218;6.564;2022-07-11T05:25:02;102047.38;;;15.09;100.00
56456;BME280;42354;53.218;6.564;2022-07-11T05:27:27;102054.22;;;15.16;100.00
56456;BME280;42354;53.218;6.564;2022-07-11T05:29:52;102055.91;;;15.19;100.00
56456;BME280;42354;53.218;6.564;2022-07-11T05:32:17;102059.25;;;15.24;100.00
56456;BME280;42354;53.218;6.564;2022-07-11T05:34:43;102064.44;;;15.29;100.00
56456;BME280;42354;53.218;6.564;2022-07-11T05:37:08;102065.22;;;15.31;100.00
56456;BME280;42354;53.218;6.564;2022-07-11T05:39:33;102069.88;;;15.29;100.00
56456;BME280;42354;53.218;6.564;2022-07-11T05:41:59;102072.75;;;15.26;100.00
56456;BME280;42354;53.218;6.564;2022-07-11T05:44:24;102068.38;;;15.23;100.00
56456;BME280;42354;53.218;6.564;2022-07-11T05:46:49;102068.63;;;15.19;100.00
56456;BME280;42354;53.218;6.564;2022-07-11T05:49:15;102068.38;;;15.23;100.00
56456;BME280;42354;53.218;6.564;2022-07-11T05:51:40;102073.25;;;15.16;100.00
56456;BME280;42354;53.218;6.564;2022-07-11T05:54:06;102066.47;;;15.08;100.00
56456;BME280;42354;53.218;6.564;2022-07-11T05:56:32;102070.34;;;15.04;100.00
56456;BME280;42354;53.218;6.564;2022-07-11T05:58:57;102067.53;;;15.05;100.00
56456;BME280;42354;53.218;6.564;2022-07-11T06:01:22;102067.38;;;15.08;100.00
56456;BME280;42354;53.218;6.564;2022-07-11T06:03:48;102062.22;;;15.20;100.00
56456;BME280;42354;53.218;6.564;2022-07-11T06:06:13;102068.28;;;15.25;100.00
56456;BME280;42354;53.218;6.564;2022-07-11T06:08:38;102066.00;;;15.33;100.00
56456;BME280;42354;53.218;6.564;2022-07-11T06:11:09;102071.97;;;15.39;100.00
56456;BME280;42354;53.218;6.564;2022-07-11T06:13:36;102069.78;;;15.46;100.00
56456;BME280;42354;53.218;6.564;2022-07-11T06:16:02;102073.69;;;15.58;100.00
56456;BME280;42354;53.218;6.564;2022-07-11T06:18:27;102073.13;;;15.68;100.00
56456;BME280;42354;53.218;6.564;2022-07-11T06:20:52;102072.78;;;15.74;100.00
56456;BME280;42354;53.218;6.564;2022-07-11T06:23:18;102072.16;;;15.85;100.00
56456;BME280;42354;53.218;6.564;2022-07-11T06:25:43;102068.91;;;15.94;100.00
56456;BME280;42354;53.218;6.564;2022-07-11T06:28:08;102060.56;;;15.97;100.00
56456;BME280;42354;53.218;6.564;2022-07-11T06:30:34;102067.41;;;16.04;100.00
56456;BME280;42354;53.218;6.564;2022-07-11T06:33:01;102068.09;;;16.08;100.00
56456;BME280;42354;53.218;6.564;2022-07-11T06:35:26;102064.13;;;16.14;100.00
56456;BME280;42354;53.218;6.564;2022-07-11T06:37:52;102064.72;;;16.19;100.00
56456;BME280;42354;53.218;6.564;2022-07-11T06:40:17;102066.03;;;16.27;100.00
56456;BME280;42354;53.218;6.564;2022-07-11T06:42:42;102062.53;;;16.25;100.00
56456;BME280;42354;53.218;6.564;2022-07-11T06:45:08;102057.81;;;16.13;100.00
56456;BME280;42354;53.218;6.564;2022-07-11T06:47:33;102070.03;;;16.06;100.00
56456;BME280;42354;53.218;6.564;2022-07-11T06:49:59;102053.69;;;16.06;100.00
56456;BME280;42354;53.218;6.564;2022-07-11T06:52:24;102056.16;;;16.10;100.00
56456;BME280;42354;53.218;6.564;2022-07-11T06:54:49;102045.28;;;15.95;100.00
56456;BME280;42354;53.218;6.564;2022-07-11T06:57:17;102071.38;;;15.83;100.00
56456;BME280;42354;53.218;6.564;2022-07-11T06:59:42;102075.75;;;15.86;100.00
56456;BME280;42354;53.218;6.564;2022-07-11T07:02:07;102079.69;;;15.96;100.00
56456;BME280;42354;53.218;6.564;2022-07-11T07:04:32;102074.69;;;16.04;100.00
56456;BME280;42354;53.218;6.564;2022-07-11T07:06:59;102079.59;;;16.13;100.00
56456;BME280;42354;53.218;6.564;2022-07-11T07:09:25;102075.91;;;16.14;100.00
56456;BME280;42354;53.218;6.564;2022-07-11T07:11:51;102070.28;;;16.17;100.00
56456;BME280;42354;53.218;6.564;2022-07-11T07:14:16;102085.50;;;16.35;100.00
56456;BME280;42354;53.218;6.564;2022-07-11T07:16:41;102088.78;;;16.56;100.00
56456;BME280;42354;53.218;6.564;2022-07-11T07:19:07;102089.06;;;16.67;100.00
56456;BME280;42354;53.218;6.564;2022-07-11T07:21:32;102089.16;;;16.66;100.00
56456;BME280;42354;53.218;6.564;2022-07-11T07:23:57;102085.97;;;16.58;100.00
56456;BME280;42354;53.218;6.564;2022-07-11T07:26:22;102094.06;;;16.59;100.00
56456;BME280;42354;53.218;6.564;2022-07-11T07:28:47;102103.75;;;16.65;100.00
56456;BME280;42354;53.218;6.564;2022-07-11T07:31:13;102103.88;;;16.78;100.00
56456;BME280;42354;53.218;6.564;2022-07-11T07:33:38;102100.75;;;16.84;100.00
56456;BME280;42354;53.218;6.564;2022-07-11T07:36:03;102104.00;;;16.90;100.00
56456;BME280;42354;53.218;6.564;2022-07-11T07:38:29;102099.41;;;16.91;100.00
56456;BME280;42354;53.218;6.564;2022-07-11T07:40:54;102115.19;;;17.00;100.00
56456;BME280;42354;53.218;6.564;2022-07-11T07:43:19;102117.75;;;17.17;100.00
56456;BME280;42354;53.218;6.564;2022-07-11T07:45:44;102115.91;;;17.46;100.00
56456;BME280;42354;53.218;6.564;2022-07-11T07:48:10;102132.66;;;17.54;100.00
56456;BME280;42354;53.218;6.564;2022-07-11T07:50:35;102130.13;;;17.51;100.00
56456;BME280;42354;53.218;6.564;2022-07-11T07:53:00;102130.03;;;17.38;100.00
56456;BME280;42354;53.218;6.564;2022-07-11T07:55:26;102131.78;;;17.25;100.00
56456;BME280;42354;53.218;6.564;2022-07-11T07:57:52;102137.81;;;17.16;100.00
56456;BME280;42354;53.218;6.564;2022-07-11T08:00:17;102128.84;;;17.14;100.00
56456;BME280;42354;53.218;6.564;2022-07-11T08:03:05;102141.78;;;17.11;100.00
56456;BME280;42354;53.218;6.564;2022-07-11T08:05:31;102122.28;;;16.88;100.00
56456;BME280;42354;53.218;6.564;2022-07-11T08:07:56;102113.09;;;16.75;100.00
56456;BME280;42354;53.218;6.564;2022-07-11T08:10:21;102115.66;;;16.78;100.00
56456;BME280;42354;53.218;6.564;2022-07-11T08:12:47;102112.31;;;16.73;100.00
56456;BME280;42354;53.218;6.564;2022-07-11T08:15:12;102110.38;;;16.75;100.00
56456;BME280;42354;53.218;6.564;2022-07-11T08:17:37;102109.63;;;16.87;100.00
56456;BME280;42354;53.218;6.564;2022-07-11T08:20:03;102124.16;;;17.02;100.00
56456;BME280;42354;53.218;6.564;2022-07-11T08:22:28;102128.16;;;17.11;100.00
56456;BME280;42354;53.218;6.564;2022-07-11T08:24:53;102138.28;;;17.08;100.00
56456;BME280;42354;53.218;6.564;2022-07-11T08:27:19;102136.91;;;17.01;100.00
56456;BME280;42354;53.218;6.564;2022-07-11T08:29:44;102141.69;;;16.98;100.00
56456;BME280;42354;53.218;6.564;2022-07-11T08:32:09;102138.25;;;16.94;100.00
56456;BME280;42354;53.218;6.564;2022-07-11T08:34:36;102133.78;;;16.93;100.00
56456;BME280;42354;53.218;6.564;2022-07-11T08:37:01;102137.09;;;16.98;100.00
56456;BME280;42354;53.218;6.564;2022-07-11T08:39:26;102139.84;;;17.13;100.00
56456;BME280;42354;53.218;6.564;2022-07-11T08:41:51;102143.56;;;17.26;97.81
56456;BME280;42354;53.218;6.564;2022-07-11T08:44:17;102138.13;;;17.54;97.17
56456;BME280;42354;53.218;6.564;2022-07-11T08:46:42;102136.13;;;17.99;95.61
56456;BME280;42354;53.218;6.564;2022-07-11T08:49:08;102130.13;;;18.21;92.81
56456;BME280;42354;53.218;6.564;2022-07-11T08:51:36;102127.97;;;18.26;91.35
56456;BME280;42354;53.218;6.564;2022-07-11T08:54:02;102138.38;;;18.07;90.70
56456;BME280;42354;53.218;6.564;2022-07-11T08:56:28;102143.88;;;17.92;91.74
56456;BME280;42354;53.218;6.564;2022-07-11T08:58:54;102139.31;;;17.79;91.67
56456;BME280;42354;53.218;6.564;2022-07-11T09:01:20;102144.38;;;17.70;92.66
56456;BME280;42354;53.218;6.564;2022-07-11T09:03:47;102135.50;;;17.81;92.66
56456;BME280;42354;53.218;6.564;2022-07-11T09:06:14;102141.94;;;17.80;92.07
56456;BME280;42354;53.218;6.564;2022-07-11T09:08:39;102139.56;;;17.88;91.71
56456;BME280;42354;53.218;6.564;2022-07-11T09:11:05;102147.84;;;18.01;91.96
56456;BME280;42354;53.218;6.564;2022-07-11T09:13:30;102144.31;;;18.40;89.62
56456;BME280;42354;53.218;6.564;2022-07-11T09:16:02;102148.72;;;18.55;88.79
56456;BME280;42354;53.218;6.564;2022-07-11T09:18:32;102152.72;;;18.64;87.84
56456;BME280;42354;53.218;6.564;2022-07-11T09:21:02;102152.84;;;18.48;86.90
56456;BME280;42354;53.218;6.564;2022-07-11T09:23:47;102160.84;;;18.24;88.17
56456;BME280;42354;53.218;6.564;2022-07-11T09:26:41;102161.88;;;18.09;89.19
56456;BME280;42354;53.218;6.564;2022-07-11T09:29:11;102153.97;;;18.04;89.54
56456;BME280;42354;53.218;6.564;2022-07-11T09:31:37;102164.81;;;17.92;91.03
56456;BME280;42354;53.218;6.564;2022-07-11T09:34:04;102153.53;;;17.84;91.92
56456;BME280;42354;53.218;6.564;2022-07-11T09:36:33;102156.06;;;17.73;92.50
56456;BME280;42354;53.218;6.564;2022-07-11T09:38:59;102163.56;;;17.83;91.72
56456;BME280;42354;53.218;6.564;2022-07-11T09:41:26;102159.28;;;17.79;91.81
56456;BME280;42354;53.218;6.564;2022-07-11T09:43:51;102171.06;;;17.80;92.23
56456;BME280;42354;53.218;6.564;2022-07-11T09:46:23;102171.19;;;17.78;91.98
56456;BME280;42354;53.218;6.564;2022-07-11T09:48:48;102160.94;;;17.67;92.29
56456;BME280;42354;53.218;6.564;2022-07-11T09:51:18;102155.19;;;17.72;92.35
56456;BME280;42354;53.218;6.564;2022-07-11T09:53:54;102163.28;;;17.88;91.61
56456;BME280;42354;53.218;6.564;2022-07-11T09:56:23;102175.06;;;17.88;91.43
56456;BME280;42354;53.218;6.564;2022-07-11T09:58:50;102165.22;;;17.86;91.27
56456;BME280;42354;53.218;6.564;2022-07-11T10:01:23;102163.47;;;17.85;91.33
56456;BME280;42354;53.218;6.564;2022-07-11T10:03:48;102178.47;;;17.92;91.38
56456;BME280;42354;53.218;6.564;2022-07-11T10:06:13;102166.38;;;17.96;91.33
56456;BME280;42354;53.218;6.564;2022-07-11T10:08:39;102165.03;;;17.89;91.46
56456;BME280;42354;53.218;6.564;2022-07-11T10:11:04;102165.63;;;17.80;92.23
56456;BME280;42354;53.218;6.564;2022-07-11T10:13:29;102171.88;;;17.67;93.14
56456;BME280;42354;53.218;6.564;2022-07-11T10:15:54;102160.84;;;17.69;93.41
56456;BME280;42354;53.218;6.564;2022-07-11T10:18:29;102162.72;;;17.68;93.23
56456;BME280;42354;53.218;6.564;2022-07-11T10:20:58;102173.03;;;17.78;93.35
56456;BME280;42354;53.218;6.564;2022-07-11T10:30:58;102160.75;;;17.70;93.18
56456;BME280;42354;53.218;6.564;2022-07-11T10:33:26;102161.03;;;17.80;93.03
56456;BME280;42354;53.218;6.564;2022-07-11T10:35:52;102157.41;;;17.94;91.63
56456;BME280;42354;53.218;6.564;2022-07-11T10:38:19;102162.88;;;17.94;91.63
56456;BME280;42354;53.218;6.564;2022-07-11T10:43:14;102168.50;;;18.05;91.81
56456;BME280;42354;53.218;6.564;2022-07-11T10:45:59;102165.41;;;17.97;91.79
56456;BME280;42354;53.218;6.564;2022-07-11T10:48:25;102171.06;;;17.94;91.99
56456;BME280;42354;53.218;6.564;2022-07-11T10:51:37;102171.16;;;17.92;92.16
56456;BME280;42354;53.218;6.564;2022-07-11T10:53:44;102174.16;;;18.02;92.05
56456;BME280;42354;53.218;6.564;2022-07-11T10:58:45;102181.34;;;18.17;91.07
56456;BME280;42354;53.218;6.564;2022-07-11T11:01:20;102183.03;;;18.47;90.78
56456;BME280;42354;53.218;6.564;2022-07-11T11:03:45;102180.25;;;18.61;88.14
56456;BME280;42354;53.218;6.564;2022-07-11T11:06:10;102173.44;;;18.54;87.79
56456;BME280;42354;53.218;6.564;2022-07-11T11:13:36;102181.22;;;18.33;86.67
56456;BME280;42354;53.218;6.564;2022-07-11T11:16:02;102180.47;;;18.17;88.08
56456;BME280;42354;53.218;6.564;2022-07-11T11:18:39;102171.97;;;18.21;88.29
56456;BME280;42354;53.218;6.564;2022-07-11T11:26:18;102181.28;;;18.46;87.17
56456;BME280;42354;53.218;6.564;2022-07-11T11:28:54;102190.56;;;18.43;87.17
56456;BME280;42354;53.218;6.564;2022-07-11T11:31:20;102183.22;;;18.44;87.47
56456;BME280;42354;53.218;6.564;2022-07-11T11:33:45;102192.81;;;18.36;87.10
56456;BME280;42354;53.218;6.564;2022-07-11T11:36:12;102200.34;;;18.33;86.96
56456;BME280;42354;53.218;6.564;2022-07-11T11:38:40;102199.63;;;18.44;86.84
56456;BME280;42354;53.218;6.564;2022-07-11T11:41:06;102187.38;;;18.63;85.77
56456;BME280;42354;53.218;6.564;2022-07-11T11:43:32;102190.41;;;18.59;85.81
56456;BME280;42354;53.218;6.564;2022-07-11T11:45:57;102187.06;;;18.68;85.61
56456;BME280;42354;53.218;6.564;2022-07-11T11:51:00;102185.91;;;18.58;86.03
56456;BME280;42354;53.218;6.564;2022-07-11T11:53:26;102187.66;;;18.59;86.24
56456;BME280;42354;53.218;6.564;2022-07-11T11:55:53;102192.56;;;18.81;85.41
56456;BME280;42354;53.218;6.564;2022-07-11T11:58:18;102179.56;;;18.84;85.13
56456;BME280;42354;53.218;6.564;2022-07-11T12:00:53;102180.91;;;18.91;84.23
56456;BME280;42354;53.218;6.564;2022-07-11T12:03:18;102183.53;;;18.93;84.27
56456;BME280;42354;53.218;6.564;2022-07-11T12:05:52;102186.38;;;18.91;83.43
56456;BME280;42354;53.218;6.564;2022-07-11T12:08:24;102183.50;;;18.80;84.15
56456;BME280;42354;53.218;6.564;2022-07-11T12:10:55;102182.41;;;18.83;84.84
56456;BME280;42354;53.218;6.564;2022-07-11T12:13:21;102186.28;;;19.06;84.29
56456;BME280;42354;53.218;6.564;2022-07-11T12:15:46;102185.09;;;19.22;82.78
56456;BME280;42354;53.218;6.564;2022-07-11T12:18:35;102182.34;;;18.97;83.87
56456;BME280;42354;53.218;6.564;2022-07-11T12:21:08;102182.75;;;18.91;84.22
56456;BME280;42354;53.218;6.564;2022-07-11T12:23:34;102177.94;;;18.94;84.97
56456;BME280;42354;53.218;6.564;2022-07-11T12:25:59;102176.97;;;18.95;83.12
56456;BME280;42354;53.218;6.564;2022-07-11T12:28:25;102170.19;;;18.88;84.03
56456;BME280;42354;53.218;6.564;2022-07-11T12:30:56;102172.81;;;18.90;83.97
56456;BME280;42354;53.218;6.564;2022-07-11T12:33:21;102171.19;;;19.00;83.69
56456;BME280;42354;53.218;6.564;2022-07-11T12:35:58;102184.28;;;18.95;83.71
56456;BME280;42354;53.218;6.564;2022-07-11T12:38:24;102186.59;;;19.01;84.37
56456;BME280;42354;53.218;6.564;2022-07-11T12:41:02;102182.34;;;19.10;83.72
56456;BME280;42354;53.218;6.564;2022-07-11T12:43:49;102181.03;;;19.03;83.87
56456;BME280;42354;53.218;6.564;2022-07-11T12:46:32;102184.53;;;19.05;84.19
56456;BME280;42354;53.218;6.564;2022-07-11T12:48:59;102184.22;;;19.22;83.59
56456;BME280;42354;53.218;6.564;2022-07-11T12:51:33;102186.94;;;19.09;83.50
56456;BME280;42354;53.218;6.564;2022-07-11T12:54:03;102182.47;;;19.08;83.98
56456;BME280;42354;53.218;6.564;2022-07-11T12:56:29;102182.69;;;19.30;83.51
56456;BME280;42354;53.218;6.564;2022-07-11T12:58:54;102186.00;;;19.48;82.93
56456;BME280;42354;53.218;6.564;2022-07-11T13:01:20;102193.31;;;19.48;81.68
56456;BME280;42354;53.218;6.564;2022-07-11T13:03:46;102192.56;;;19.33;81.95
56456;BME280;42354;53.218;6.564;2022-07-11T13:06:11;102191.91;;;19.29;82.64